Time;durP1;ratioP1;P1;durP2;ratioP2;P2;SDS_P1;SDS_P2;PMS_P1;PMS_P2;Temp;Humidity;BMP_temperature;BMP_pressure;BME280_temperature;BME280_humidity;BME280_pressure;Samples;Min_cycle;Max_cycle;Signal;HPM_P1;HPM_P2
2023/12/27 00:01:18;;;;;;;3.35;1.58;;;;;;;9.16;57.39;100271.47;5017523;28;97388;-80
2023/12/27 00:03:44;;;;;;;4.63;1.48;;;;;;;9.17;57.74;100281.94;5011137;27;96967;-81
2023/12/27 00:06:09;;;;;;;5.82;1.33;;;;;;;9.27;57.80;100290.38;5021097;27;100979;-81
2023/12/27 00:08:35;;;;;;;7.00;2.13;;;;;;;9.29;57.59;100294.66;5011273;27;100874;-80
2023/12/27 00:11:02;;;;;;;3.90;1.23;;;;;;;9.33;58.56;100303.28;5016286;27;97273;-79
2023/12/27 00:13:27;;;;;;;5.15;1.55;;;;;;;9.28;59.21;100295.56;5011093;27;97489;-80
2023/12/27 00:15:53;;;;;;;4.40;1.30;;;;;;;9.22;60.02;100300.09;5017262;27;100289;-80
2023/12/27 00:18:18;;;;;;;5.63;1.38;;;;;;;9.03;60.90;100298.03;5017572;27;97523;-80
2023/12/27 00:20:46;;;;;;;0.82;0.60;;;;;;;9.10;61.24;100317.03;5014388;27;96822;-80
2023/12/27 00:23:12;;;;;;;1.85;0.63;;;;;;;8.88;61.75;100327.25;4982197;27;96902;-81
2023/12/27 00:25:37;;;;;;;0.60;0.50;;;;;;;8.72;61.30;100329.41;5013851;28;101331;-80
2023/12/27 00:28:03;;;;;;;2.28;1.00;;;;;;;8.93;60.76;100345.44;5010809;27;102107;-80
2023/12/27 00:30:28;;;;;;;3.05;0.77;;;;;;;8.80;61.09;100353.63;4999874;27;96856;-80
2023/12/27 00:32:54;;;;;;;2.03;0.73;;;;;;;8.67;60.95;100348.72;5014533;27;97065;-80
2023/12/27 00:35:19;;;;;;;1.38;0.70;;;;;;;8.76;60.34;100365.09;5016202;27;100743;-82
2023/12/27 00:37:45;;;;;;;2.33;0.95;;;;;;;8.79;60.30;100359.75;5013952;27;101585;-80
2023/12/27 00:40:11;;;;;;;1.60;0.52;;;;;;;8.70;59.88;100373.09;5017218;27;97227;-80
2023/12/27 00:42:36;;;;;;;3.22;0.77;;;;;;;8.60;60.25;100376.81;4997428;28;96760;-80
2023/12/27 00:45:02;;;;;;;1.52;0.70;;;;;;;8.56;60.13;100383.03;5033342;27;101213;-81
2023/12/27 00:47:28;;;;;;;0.85;0.40;;;;;;;8.64;59.68;100383.72;5017266;27;100840;-81
2023/12/27 00:49:54;;;;;;;0.82;0.55;;;;;;;8.55;60.36;100391.78;5032780;27;96703;-80
2023/12/27 00:52:20;;;;;;;1.75;0.80;;;;;;;8.31;59.85;100373.13;5017239;27;96973;-80
2023/12/27 00:54:45;;;;;;;1.63;0.65;;;;;;;8.32;59.72;100385.31;5015472;27;101341;-81
2023/12/27 00:57:11;;;;;;;3.13;0.80;;;;;;;8.22;59.64;100380.34;5016827;27;101603;-80
2023/12/27 00:59:36;;;;;;;2.65;0.85;;;;;;;8.42;60.01;100414.75;5032941;27;97275;-80
2023/12/27 01:02:02;;;;;;;2.45;0.70;;;;;;;8.38;59.15;100423.56;5033832;27;96875;-80
2023/12/27 01:04:28;;;;;;;1.83;0.50;;;;;;;8.28;58.50;100424.66;5033102;27;97893;-80
2023/12/27 01:06:53;;;;;;;0.63;0.50;;;;;;;8.31;58.33;100437.66;5051990;27;98469;-80
2023/12/27 01:09:19;;;;;;;2.08;0.57;;;;;;;8.12;57.71;100414.56;5014385;27;97089;-81
2023/12/27 01:11:44;;;;;;;1.48;0.60;;;;;;;8.36;57.41;100439.28;5027417;27;97353;-80
2023/12/27 01:14:10;;;;;;;4.93;1.10;;;;;;;8.33;57.93;100447.19;5014653;27;101290;-81
2023/12/27 01:16:35;;;;;;;4.05;0.77;;;;;;;8.33;58.52;100444.56;5012360;28;97969;-80
2023/12/27 01:19:01;;;;;;;4.90;0.98;;;;;;;8.35;58.68;100448.03;5048829;27;96874;-80
2023/12/27 01:21:27;;;;;;;1.45;0.80;;;;;;;8.30;58.30;100441.19;5016681;27;96963;-80
2023/12/27 01:23:52;;;;;;;2.60;0.80;;;;;;;8.16;59.21;100437.09;5009112;28;101331;-80
2023/12/27 01:26:17;;;;;;;2.78;1.20;;;;;;;8.10;58.89;100446.84;5044604;27;97919;-80
2023/12/27 01:28:43;;;;;;;4.28;1.00;;;;;;;8.20;58.75;100458.81;5032492;27;97481;-80
2023/12/27 01:31:09;;;;;;;3.45;0.82;;;;;;;8.25;58.85;100454.34;5033689;27;97015;-82
2023/12/27 01:33:35;;;;;;;5.00;1.10;;;;;;;8.20;58.10;100452.72;5024484;27;100257;-81
2023/12/27 01:36:08;;;;;;;1.50;0.85;;;;;;;8.24;58.01;100460.47;5052147;27;97380;-82
2023/12/27 01:38:33;;;;;;;2.38;1.00;;;;;;;8.17;57.74;100466.72;5016569;27;96968;-82
2023/12/27 01:40:59;;;;;;;3.55;0.93;;;;;;;8.10;57.50;100460.78;5033962;27;96996;-82
2023/12/27 01:43:27;;;;;;;2.00;0.80;;;;;;;8.28;57.84;100482.19;5016286;27;101358;-82
2023/12/27 01:45:53;;;;;;;1.27;0.65;;;;;;;8.23;57.65;100487.53;5015608;27;101868;-82
2023/12/27 01:48:21;;;;;;;3.75;0.90;;;;;;;8.02;58.51;100494.06;5013565;28;96824;-81
2023/12/27 01:50:51;;;;;;;3.05;0.95;;;;;;;7.95;58.72;100497.72;5025957;27;96950;-82
2023/12/27 01:53:17;;;;;;;2.75;1.42;;;;;;;7.94;58.85;100499.47;5012968;28;97961;-82
2023/12/27 01:55:44;;;;;;;3.33;1.05;;;;;;;7.85;nan;100498.78;5030266;27;98501;-82
2023/12/27 01:58:11;;;;;;;2.15;0.88;;;;;;;7.79;58.89;100485.81;5012762;28;96737;-82
2023/12/27 02:00:37;;;;;;;3.25;0.82;;;;;;;7.81;59.31;100511.03;4998882;28;97033;-82
2023/12/27 02:03:03;;;;;;;4.53;1.05;;;;;;;7.79;59.10;100506.75;5016304;28;101364;-82
2023/12/27 02:05:29;;;;;;;5.72;1.40;;;;;;;7.84;58.76;100495.31;4997624;28;101024;-82
2023/12/27 02:07:55;;;;;;;3.08;1.65;;;;;;;7.95;59.03;100513.41;5016418;28;96782;-82
2023/12/27 02:10:20;;;;;;;3.63;0.95;;;;;;;8.00;58.56;100511.56;5015745;28;97503;-80
2023/12/27 02:12:48;;;;;;;4.47;1.08;;;;;;;7.92;58.60;100513.47;4999861;28;100876;-80
2023/12/27 02:15:13;;;;;;;5.22;1.10;;;;;;;7.88;58.84;100510.06;5013626;28;100928;-80
2023/12/27 02:17:39;;;;;;;4.00;0.90;;;;;;;7.90;58.76;100510.00;5034771;27;97033;-80
2023/12/27 02:20:05;;;;;;;3.05;0.90;;;;;;;7.87;58.34;100523.13;4996816;28;97447;-80
2023/12/27 02:22:32;;;;;;;5.40;1.45;;;;;;;7.96;58.50;100527.31;5012843;28;98178;-79
2023/12/27 02:24:57;;;;;;;4.00;0.98;;;;;;;7.64;58.29;100511.38;5009031;28;101391;-80
2023/12/27 02:27:23;;;;;;;9.05;1.98;;;;;;;7.69;58.27;100519.13;5016202;28;96713;-80
2023/12/27 02:29:48;;;;;;;6.03;1.45;;;;;;;7.78;58.71;100534.63;5031626;28;96964;-80
2023/12/27 02:32:14;;;;;;;5.38;1.38;;;;;;;7.79;57.88;100528.50;5013785;28;100902;-80
2023/12/27 02:34:40;;;;;;;2.42;0.90;;;;;;;7.66;58.26;100529.63;5031787;28;97929;-80
2023/12/27 02:37:05;;;;;;;3.85;1.00;;;;;;;7.70;58.49;100545.22;5032872;28;97143;-80
2023/12/27 02:39:31;;;;;;;4.38;1.08;;;;;;;7.60;58.63;100545.44;5015366;28;97272;-80
2023/12/27 02:41:57;;;;;;;4.20;1.02;;;;;;;7.51;58.81;100543.84;5015537;28;100828;-81
2023/12/27 02:44:25;;;;;;;3.47;1.25;;;;;;;7.58;58.57;100548.06;4995669;28;101343;-80
2023/12/27 02:46:54;;;;;;;6.28;1.10;;;;;;;7.52;58.82;100542.94;5032962;28;96878;-80
2023/12/27 02:49:20;;;;;;;4.32;1.60;;;;;;;7.66;58.34;100558.38;4997368;28;96966;-80
2023/12/27 02:51:45;;;;;;;6.20;1.33;;;;;;;7.45;58.61;100564.84;5015051;28;101753;-80
2023/12/27 02:54:12;;;;;;;6.10;1.20;;;;;;;7.40;58.41;100540.56;5031424;28;98055;-80
2023/12/27 02:56:37;;;;;;;3.92;1.40;;;;;;;7.49;58.35;100571.75;5032400;28;96754;-80
2023/12/27 02:59:03;;;;;;;7.32;1.27;;;;;;;7.54;58.52;100575.13;5031293;28;97155;-81
2023/12/27 03:01:28;;;;;;;5.57;2.15;;;;;;;7.52;58.28;100565.59;5012336;28;98318;-82
2023/12/27 03:03:54;;;;;;;6.93;1.30;;;;;;;7.33;58.33;100575.47;5013067;28;100846;-80
2023/12/27 03:06:19;;;;;;;4.93;1.23;;;;;;;7.13;58.95;100573.22;5012648;28;97452;-80
2023/12/27 03:08:44;;;;;;;5.40;2.42;;;;;;;7.32;58.24;100574.63;5009841;28;96852;-80
2023/12/27 03:11:10;;;;;;;7.32;1.20;;;;;;;7.46;58.32;100582.25;5030992;27;100919;-80
2023/12/27 03:13:35;;;;;;;6.10;1.30;;;;;;;7.30;57.86;100560.75;4997826;28;101515;-80
2023/12/27 03:16:07;;;;;;;7.10;1.15;;;;;;;7.48;58.02;100585.69;5012155;27;96920;-80
2023/12/27 03:18:36;;;;;;;11.90;1.63;;;;;;;7.41;57.69;100584.91;4982462;28;97070;-80
2023/12/27 03:21:02;;;;;;;5.43;1.20;;;;;;;7.40;58.28;100600.63;5016434;27;98217;-80
2023/12/27 03:23:28;;;;;;;5.72;1.10;;;;;;;7.47;57.81;100603.09;5009827;28;101056;-80
2023/12/27 03:25:54;;;;;;;8.30;1.50;;;;;;;7.45;57.44;100599.66;5015287;28;96722;-80
2023/12/27 03:28:22;;;;;;;6.30;1.50;;;;;;;7.21;58.08;100592.22;5014603;28;97484;-80
2023/12/27 03:30:48;;;;;;;3.97;1.13;;;;;;;7.29;58.15;100599.94;5003877;28;101431;-80
2023/12/27 03:33:14;;;;;;;6.65;1.20;;;;;;;7.28;57.96;100604.31;5021431;28;99175;-80
2023/12/27 03:35:39;;;;;;;5.68;1.27;;;;;;;7.26;58.16;100608.69;5011417;28;96871;-79
2023/12/27 03:38:05;;;;;;;4.38;1.40;;;;;;;7.41;57.58;100608.44;5014290;28;96895;-80
2023/12/27 03:40:30;;;;;;;6.22;1.52;;;;;;;7.39;57.39;100610.22;4992784;28;102799;-80
2023/12/27 03:42:56;;;;;;;5.57;1.15;;;;;;;7.43;57.39;100613.63;5025371;28;101485;-80
2023/12/27 03:45:21;;;;;;;5.00;1.67;;;;;;;7.43;57.54;100621.47;4996929;28;96713;-80
2023/12/27 03:47:47;;;;;;;3.85;1.42;;;;;;;7.41;57.33;100618.00;5024433;28;96975;-80
2023/12/27 03:50:13;;;;;;;7.57;1.55;;;;;;;7.35;57.48;100621.59;5016410;27;97473;-80
2023/12/27 03:52:38;;;;;;;11.85;1.83;;;;;;;7.29;57.47;100618.22;5035100;27;98038;-80
2023/12/27 03:55:04;;;;;;;7.05;1.40;;;;;;;7.26;57.49;100616.50;5033936;27;97266;-80
2023/12/27 03:57:30;;;;;;;11.95;1.70;;;;;;;7.28;57.40;100612.13;5031735;27;96908;-80
2023/12/27 03:59:56;;;;;;;12.43;2.72;;;;;;;7.41;57.16;100631.06;5033531;27;98584;-80
2023/12/27 04:02:21;;;;;;;12.52;4.40;;;;;;;7.43;57.33;100635.38;5017850;27;101629;-80
2023/12/27 04:04:47;;;;;;;18.02;6.88;;;;;;;7.37;57.42;100634.63;5017005;27;97050;-80
2023/12/27 04:07:13;;;;;;;22.55;8.02;;;;;;;7.25;57.48;100641.78;5016764;27;97056;-80
2023/12/27 04:09:39;;;;;;;23.67;7.32;;;;;;;7.25;57.75;100633.09;5033536;27;98460;-80
2023/12/27 04:12:08;;;;;;;20.13;7.43;;;;;;;7.28;57.73;100637.41;5033837;27;101053;-80
2023/12/27 04:14:34;;;;;;;9.55;2.78;;;;;;;7.13;58.10;100639.34;5013748;28;96726;-80
2023/12/27 04:16:59;;;;;;;15.95;3.20;;;;;;;7.11;58.64;100642.88;5031142;27;97450;-80
2023/12/27 04:19:24;;;;;;;11.10;2.53;;;;;;;6.92;58.76;100642.25;5033738;27;98790;-80
2023/12/27 04:21:50;;;;;;;8.98;2.85;;;;;;;6.97;58.87;100651.75;5017224;27;101326;-80
2023/12/27 04:24:16;;;;;;;8.48;2.40;;;;;;;6.91;59.53;100643.16;5015857;27;97126;-80
2023/12/27 04:26:41;;;;;;;9.70;2.25;;;;;;;6.87;59.08;100655.38;5034885;27;96965;-80
2023/12/27 04:29:10;;;;;;;5.50;1.90;;;;;;;6.69;60.04;100669.53;5015749;27;100848;-80
2023/12/27 04:31:37;;;;;;;8.05;2.00;;;;;;;6.77;59.95;100677.25;4999958;27;102270;-80
2023/12/27 04:34:03;;;;;;;4.40;1.63;;;;;;;6.81;59.67;100673.72;4999414;27;96857;-80
2023/12/27 04:36:35;;;;;;;9.30;2.63;;;;;;;6.94;59.39;100677.03;5017795;27;96871;-80
2023/12/27 04:39:00;;;;;;;7.38;1.85;;;;;;;6.91;59.68;100670.09;5016686;27;99506;-80
2023/12/27 04:41:26;;;;;;;7.85;1.80;;;;;;;6.79;59.68;100678.09;5016844;27;100647;-81
2023/12/27 04:43:51;;;;;;;11.07;1.60;;;;;;;6.60;59.65;100660.94;5033621;27;96714;-80
2023/12/27 04:46:18;;;;;;;7.15;1.60;;;;;;;6.68;59.88;100664.31;5033589;27;97322;-81
2023/12/27 04:48:43;;;;;;;8.23;1.63;;;;;;;6.56;59.96;100671.41;5006761;27;101402;-81
2023/12/27 04:51:09;;;;;;;4.45;1.85;;;;;;;6.68;59.81;100690.41;5016944;27;97748;-80
2023/12/27 04:53:34;;;;;;;4.45;1.52;;;;;;;6.49;60.04;100671.53;5033391;27;97025;-81
2023/12/27 04:56:00;;;;;;;6.85;1.55;;;;;;;6.64;59.46;100676.53;5052547;27;97234;-80
2023/12/27 04:58:25;;;;;;;6.88;1.45;;;;;;;6.78;59.38;100687.69;5032385;27;98037;-80
2023/12/27 05:00:51;;;;;;;6.45;1.67;;;;;;;6.48;59.92;100672.38;5033555;27;97407;-80
2023/12/27 05:03:16;;;;;;;6.85;1.48;;;;;;;6.58;59.97;100694.88;5033475;27;96766;-80
2023/12/27 05:05:42;;;;;;;6.53;1.45;;;;;;;6.52;60.15;100695.81;5017088;27;96875;-80
2023/12/27 05:08:07;;;;;;;7.75;1.55;;;;;;;6.71;59.62;100699.06;5016607;27;101205;-80
2023/12/27 05:10:33;;;;;;;6.80;2.08;;;;;;;6.62;59.53;100699.16;5014765;27;101562;-80
2023/12/27 05:12:58;;;;;;;6.82;1.90;;;;;;;6.57;59.95;100706.19;5000463;27;96806;-80
2023/12/27 05:15:24;;;;;;;9.88;2.25;;;;;;;6.49;60.33;100701.06;5051353;27;96766;-80
2023/12/27 05:17:49;;;;;;;5.95;1.50;;;;;;;6.56;60.08;100715.75;5013455;28;97560;-80
2023/12/27 05:20:15;;;;;;;7.10;1.40;;;;;;;6.46;60.15;100728.94;5014248;27;100862;-80
2023/12/27 05:22:40;;;;;;;4.32;1.30;;;;;;;6.48;60.60;100720.19;5033463;27;97190;-80
2023/12/27 05:25:07;;;;;;;5.15;1.88;;;;;;;6.49;60.29;100736.72;5015464;27;97737;-80
2023/12/27 05:27:33;;;;;;;6.40;1.40;;;;;;;6.53;60.57;100733.19;5033321;27;97180;-80
2023/12/27 05:29:58;;;;;;;4.45;1.60;;;;;;;6.34;60.79;100727.28;5015672;27;97295;-80
2023/12/27 05:32:24;;;;;;;7.20;1.77;;;;;;;6.39;60.37;100743.75;5033174;27;98463;-80
2023/12/27 05:34:52;;;;;;;6.10;1.23;;;;;;;6.48;60.30;100758.44;5018556;27;97144;-79
2023/12/27 05:37:18;;;;;;;6.30;1.55;;;;;;;6.51;60.71;100746.22;5006110;27;101376;-80
2023/12/27 05:39:43;;;;;;;5.80;1.48;;;;;;;6.39;60.48;100724.66;5022644;27;97384;-80
2023/12/27 05:42:09;;;;;;;10.25;1.77;;;;;;;6.49;60.66;100750.63;5040295;27;98145;-80
2023/12/27 05:44:35;;;;;;;4.60;1.60;;;;;;;6.49;60.24;100752.38;5021804;27;97335;-80
2023/12/27 05:47:02;;;;;;;8.85;1.70;;;;;;;6.41;60.05;100728.97;5022758;27;97642;-80
2023/12/27 05:49:27;;;;;;;6.10;1.52;;;;;;;6.43;60.17;100741.97;5005612;27;101024;-80
2023/12/27 05:51:53;;;;;;;10.70;2.47;;;;;;;6.50;60.58;100756.69;5039534;27;97290;-80
2023/12/27 05:54:18;;;;;;;7.50;2.03;;;;;;;6.31;60.37;100733.44;5005344;27;97250;-80
2023/12/27 05:56:44;;;;;;;8.85;1.60;;;;;;;6.51;60.11;100747.97;5039236;27;101330;-79
2023/12/27 05:59:09;;;;;;;8.90;2.40;;;;;;;6.52;60.14;100758.41;5021477;27;101225;-80
2023/12/27 06:01:35;;;;;;;9.90;2.60;;;;;;;6.34;60.62;100754.25;5023105;27;97284;-80
2023/12/27 06:04:03;;;;;;;10.57;2.60;;;;;;;6.32;60.44;100768.19;5022567;27;97244;-79
2023/12/27 06:06:32;;;;;;;11.18;3.05;;;;;;;6.35;60.71;100774.22;5023343;27;97338;-79
2023/12/27 06:08:57;;;;;;;15.95;2.72;;;;;;;6.35;60.50;100770.75;5021911;27;97489;-80
2023/12/27 06:11:23;;;;;;;9.07;2.38;;;;;;;6.40;60.55;100773.31;5022082;27;97072;-80
2023/12/27 06:13:49;;;;;;;8.70;2.38;;;;;;;6.38;60.64;100767.25;5039112;27;97131;-80
2023/12/27 06:16:15;;;;;;;10.80;1.90;;;;;;;6.20;60.43;100742.22;5019406;28;101376;-80
2023/12/27 06:18:40;;;;;;;10.90;1.90;;;;;;;6.24;60.70;100778.66;5018970;27;101606;-80
2023/12/27 06:21:06;;;;;;;13.80;3.20;;;;;;;6.27;61.05;100780.38;5023018;27;97145;-79
2023/12/27 06:23:31;;;;;;;7.68;2.10;;;;;;;6.19;60.78;100751.78;5022295;27;97257;-79
2023/12/27 06:25:57;;;;;;;10.02;1.98;;;;;;;6.27;60.58;100772.56;5038889;27;100994;-80
2023/12/27 06:28:22;;;;;;;10.43;2.25;;;;;;;6.31;60.46;100779.47;5057120;27;97544;-80
2023/12/27 06:30:48;;;;;;;14.73;2.53;;;;;;;6.28;60.46;100776.88;5039226;27;97093;-80
2023/12/27 06:33:13;;;;;;;9.73;2.45;;;;;;;6.15;60.40;100777.91;5021729;27;97035;-79
2023/12/27 06:35:39;;;;;;;9.80;2.50;;;;;;;6.43;60.28;100797.63;5038094;27;97473;-80
2023/12/27 06:38:04;;;;;;;7.60;2.30;;;;;;;6.47;60.10;100794.09;5039338;27;97429;-80
2023/12/27 06:40:30;;;;;;;9.52;2.38;;;;;;;6.45;60.27;100798.47;5039298;27;96753;-79
2023/12/27 06:42:55;;;;;;;11.27;2.13;;;;;;;6.52;59.99;100805.38;5022244;27;97270;-80
2023/12/27 06:45:21;;;;;;;11.43;2.45;;;;;;;6.45;59.78;100811.50;5021010;27;97746;-81
2023/12/27 06:47:46;;;;;;;6.32;2.15;;;;;;;6.38;59.91;100803.78;5043284;27;97939;-80
2023/12/27 06:50:12;;;;;;;15.40;2.65;;;;;;;6.32;59.67;100781.22;5035126;27;97121;-80
2023/12/27 06:52:38;;;;;;;7.10;1.58;;;;;;;6.41;59.98;100795.91;5019111;27;96851;-81
2023/12/27 06:55:04;;;;;;;9.30;3.00;;;;;;;6.54;59.94;100800.13;5017713;27;101042;-80
2023/12/27 06:57:30;;;;;;;12.57;2.75;;;;;;;6.45;59.64;100793.25;5036035;27;96801;-81
2023/12/27 06:59:55;;;;;;;7.57;2.03;;;;;;;6.26;59.64;100776.06;5052969;27;97169;-80
2023/12/27 07:02:21;;;;;;;7.57;2.20;;;;;;;6.53;59.79;100814.91;5018688;27;98577;-80
2023/12/27 07:04:46;;;;;;;14.05;2.22;;;;;;;6.50;59.60;100819.28;5018180;27;98490;-80
2023/12/27 07:07:12;;;;;;;7.22;2.17;;;;;;;6.47;59.66;100828.00;5018546;27;97583;-81
2023/12/27 07:09:37;;;;;;;8.90;2.17;;;;;;;6.50;59.72;100838.41;5035326;27;96853;-80
2023/12/27 07:12:03;;;;;;;6.38;1.65;;;;;;;6.45;59.76;100837.59;5035679;27;96860;-80
2023/12/27 07:14:29;;;;;;;7.93;1.90;;;;;;;6.28;59.74;100808.19;5034773;27;97656;-80
2023/12/27 07:16:55;;;;;;;11.18;2.22;;;;;;;6.37;60.14;100855.06;5018443;27;101979;-80
2023/12/27 07:19:20;;;;;;;10.95;2.67;;;;;;;6.44;60.19;100856.72;5018266;27;97146;-80
2023/12/27 07:21:46;;;;;;;10.00;2.63;;;;;;;6.36;60.16;100850.72;5017765;27;97357;-81
2023/12/27 07:24:11;;;;;;;12.57;4.55;;;;;;;6.40;59.99;100848.94;5052298;27;97326;-80
2023/12/27 07:26:37;;;;;;;11.27;2.15;;;;;;;6.31;60.20;100850.75;5035144;27;97509;-80
2023/12/27 07:29:03;;;;;;;5.85;1.90;;;;;;;6.34;60.48;100853.34;5052431;27;96768;-80
2023/12/27 07:31:28;;;;;;;9.30;1.77;;;;;;;6.31;60.39;100862.91;5035810;27;96922;-80
2023/12/27 07:33:54;;;;;;;8.38;2.40;;;;;;;6.19;60.33;100848.22;5000384;27;101472;-80
2023/12/27 07:36:19;;;;;;;6.25;1.83;;;;;;;6.38;60.45;100863.75;5034859;27;98407;-81
2023/12/27 07:38:45;;;;;;;15.65;3.10;;;;;;;6.30;60.48;100872.47;5018238;27;97227;-81
2023/12/27 07:41:10;;;;;;;10.90;2.20;;;;;;;6.25;60.81;100874.25;5016921;27;97065;-81
2023/12/27 07:43:36;;;;;;;11.20;2.20;;;;;;;6.38;60.58;100882.88;5053341;27;97429;-80
2023/12/27 07:46:02;;;;;;;10.75;2.45;;;;;;;6.40;60.24;100883.72;5018212;27;98342;-80
2023/12/27 07:48:28;;;;;;;15.02;2.35;;;;;;;6.56;60.06;100876.63;5017470;27;97241;-81
2023/12/27 07:50:55;;;;;;;6.13;2.15;;;;;;;6.79;59.29;100882.50;4989667;28;96972;-81
2023/12/27 07:53:21;;;;;;;12.10;2.20;;;;;;;6.80;59.40;100879.00;5010671;28;101008;-81
2023/12/27 07:55:46;;;;;;;10.63;1.98;;;;;;;6.84;59.68;100889.44;5028254;28;97849;-80
2023/12/27 07:58:12;;;;;;;10.10;2.15;;;;;;;6.91;59.26;100883.25;5012323;28;97250;-81
2023/12/27 08:00:38;;;;;;;11.43;2.38;;;;;;;7.09;59.14;100888.28;5028614;28;96898;-81
2023/12/27 08:03:07;;;;;;;12.00;4.45;;;;;;;7.40;58.03;100895.78;5008298;28;101235;-81
2023/12/27 08:05:36;;;;;;;11.88;2.50;;;;;;;7.69;57.37;100898.03;5005939;28;98281;-80
2023/12/27 08:08:03;;;;;;;11.73;2.28;;;;;;;7.88;56.49;100904.75;5007399;28;96873;-80
2023/12/27 08:10:30;;;;;;;12.43;2.63;;;;;;;8.25;56.12;100912.06;4999837;28;96718;-80
2023/12/27 08:12:56;;;;;;;14.13;2.90;;;;;;;8.35;55.14;100884.03;5006112;28;101664;-81
2023/12/27 08:15:22;;;;;;;10.75;2.80;;;;;;;8.90;54.38;100908.41;4997407;28;97419;-80
2023/12/27 08:17:47;;;;;;;12.52;2.40;;;;;;;9.00;54.06;100912.59;4994232;28;96875;-80
2023/12/27 08:20:13;;;;;;;9.02;2.75;;;;;;;9.10;54.20;100914.16;4995483;28;97258;-80
2023/12/27 08:22:39;;;;;;;11.48;2.42;;;;;;;9.24;53.51;100912.13;4990774;28;100825;-80
2023/12/27 08:25:09;;;;;;;7.45;2.25;;;;;;;9.49;53.30;100928.25;4992415;28;101198;-80
2023/12/27 08:27:36;;;;;;;8.52;2.50;;;;;;;9.55;52.85;100935.13;4989770;28;96829;-80
2023/12/27 08:30:04;;;;;;;12.40;2.17;;;;;;;9.66;52.22;100927.06;5000389;28;97566;-80
2023/12/27 08:32:30;;;;;;;15.02;2.22;;;;;;;9.72;52.11;100912.06;5001753;28;97503;-80
2023/12/27 08:34:55;;;;;;;10.38;1.95;;;;;;;10.07;51.61;100933.16;5002864;28;98457;-80
2023/12/27 08:37:21;;;;;;;6.82;2.03;;;;;;;10.23;51.02;100939.78;4991553;28;97109;-80
2023/12/27 08:39:46;;;;;;;7.82;1.77;;;;;;;10.22;50.73;100919.69;5002268;28;97251;-81
2023/12/27 08:42:12;;;;;;;8.90;1.98;;;;;;;10.62;50.17;100947.66;5004550;28;98170;-80
2023/12/27 08:44:37;;;;;;;10.77;2.25;;;;;;;10.80;49.76;100944.59;5002175;28;101879;-81
2023/12/27 08:47:03;;;;;;;8.60;3.08;;;;;;;11.10;49.36;100953.44;4997798;28;97210;-80
2023/12/27 08:49:30;;;;;;;10.07;2.25;;;;;;;11.12;48.83;100926.28;4984484;28;97097;-80
2023/12/27 08:51:55;;;;;;;6.03;1.92;;;;;;;11.34;48.21;100948.41;5005015;28;101062;-82
2023/12/27 08:54:21;;;;;;;8.43;1.95;;;;;;;11.70;47.90;100953.56;5020908;28;97365;-81
2023/12/27 08:56:46;;;;;;;9.98;2.33;;;;;;;11.79;47.65;100961.19;5007208;28;97323;-82
2023/12/27 08:59:12;;;;;;;7.70;2.08;;;;;;;11.92;46.72;100959.94;5010221;28;96948;-82
2023/12/27 09:01:37;;;;;;;12.20;2.40;;;;;;;12.03;46.86;100961.41;5023784;28;100971;-83
2023/12/27 09:04:03;;;;;;;7.57;2.38;;;;;;;12.43;46.18;100959.28;5017327;28;97405;-81
2023/12/27 09:06:28;;;;;;;8.68;2.75;;;;;;;12.60;45.47;100963.16;4994479;28;97200;-82
2023/12/27 09:08:54;;;;;;;9.90;2.10;;;;;;;12.38;46.07;100936.63;5009865;28;97120;-82
2023/12/27 09:11:19;;;;;;;8.75;2.00;;;;;;;12.62;45.37;100958.69;5025805;27;97415;-82
2023/12/27 09:13:45;;;;;;;7.85;2.35;;;;;;;11.97;45.21;100942.25;5012047;28;97373;-82
2023/12/27 09:16:10;;;;;;;8.68;2.28;;;;;;;12.36;46.11;100960.41;5017116;27;98257;-79
2023/12/27 09:18:36;;;;;;;10.15;2.67;;;;;;;12.45;45.67;100954.84;5012813;28;97017;-79
2023/12/27 09:21:02;;;;;;;11.48;2.38;;;;;;;12.65;45.45;100967.38;4993720;28;99394;-80
2023/12/27 09:23:28;;;;;;;8.20;1.75;;;;;;;12.42;45.81;100968.09;5013473;28;97291;-79
2023/12/27 09:25:53;;;;;;;6.57;1.58;;;;;;;12.49;45.42;100945.06;4992502;28;96915;-79
2023/12/27 09:28:19;;;;;;;7.57;2.13;;;;;;;12.92;44.91;100980.56;5009485;28;97338;-78
2023/12/27 09:30:45;;;;;;;7.78;2.40;;;;;;;12.50;45.11;100981.00;5009597;28;101675;-79
2023/12/27 09:33:10;;;;;;;9.18;2.33;;;;;;;12.36;45.51;100970.03;5000816;28;101432;-78
2023/12/27 09:35:36;;;;;;;12.32;2.55;;;;;;;12.21;45.58;100959.06;5015159;27;98227;-83
2023/12/27 09:38:02;;;;;;;14.15;2.90;;;;;;;12.24;46.01;100974.78;5017075;27;97036;-83
2023/12/27 09:40:28;;;;;;;16.95;2.70;;;;;;;12.33;46.20;100960.47;5001797;27;101216;-83
2023/12/27 09:42:55;;;;;;;12.68;2.50;;;;;;;12.22;45.99;100966.09;5024999;28;97489;-83
2023/12/27 09:45:22;;;;;;;7.15;2.15;;;;;;;12.04;46.50;100976.28;5021964;27;97407;-83
2023/12/27 09:47:53;;;;;;;12.82;2.92;;;;;;;11.81;46.91;100975.19;5002831;28;98005;-86
2023/12/27 09:50:20;;;;;;;12.25;3.03;;;;;;;11.76;46.98;100980.56;5026710;27;99840;-83
2023/12/27 09:52:46;;;;;;;11.23;2.15;;;;;;;11.52;47.38;100982.13;5021718;27;98548;-82
2023/12/27 09:55:12;;;;;;;8.20;2.20;;;;;;;11.57;47.39;100977.56;5013077;27;97319;-83
2023/12/27 09:57:39;;;;;;;8.43;2.20;;;;;;;11.73;47.05;100974.53;5013553;27;96851;-82
2023/12/27 10:00:05;;;;;;;11.15;2.65;;;;;;;11.73;47.27;100977.16;5020487;27;97660;-82
2023/12/27 10:02:34;;;;;;;15.18;2.72;;;;;;;11.75;47.31;100970.94;5008493;27;100497;-83
2023/12/27 10:05:14;;;;;;;11.13;2.40;;;;;;;11.57;47.11;100956.53;5022016;27;96990;-84
2023/12/27 10:07:40;;;;;;;7.60;3.13;;;;;;;11.77;46.88;100968.25;5028973;27;96836;-82
2023/12/27 10:10:10;;;;;;;7.57;2.03;;;;;;;11.93;47.09;100966.97;5014443;27;101856;-82
2023/12/27 10:12:36;;;;;;;11.60;2.67;;;;;;;11.50;46.99;100962.88;5032467;27;97415;-83
2023/12/27 10:15:02;;;;;;;13.93;2.70;;;;;;;11.67;47.23;100974.72;5032526;27;96915;-84
2023/12/27 10:17:27;;;;;;;9.95;2.53;;;;;;;11.67;47.11;100974.72;4995608;27;97106;-82
2023/12/27 10:20:32;;;;;;;9.90;2.47;;;;;;;11.76;46.92;100966.56;5012824;27;101187;-83
2023/12/27 10:23:01;;;;;;;10.90;2.70;;;;;;;11.72;46.93;100973.69;5026602;27;98615;-82
2023/12/27 10:25:28;;;;;;;9.20;2.47;;;;;;;11.62;47.15;100952.94;5036427;27;97405;-81
2023/12/27 10:27:55;;;;;;;12.90;2.45;;;;;;;11.98;47.07;100961.53;5042551;27;97056;-82
2023/12/27 10:30:21;;;;;;;8.95;3.03;;;;;;;11.97;46.08;100926.47;5010842;27;101413;-81
2023/12/27 10:32:57;;;;;;;12.45;2.63;;;;;;;11.92;46.59;100927.53;5031368;27;100855;-82
2023/12/27 10:35:22;;;;;;;9.15;2.97;;;;;;;11.75;45.76;100928.88;5030180;27;97516;-82
2023/12/27 10:37:57;;;;;;;12.77;2.90;;;;;;;11.71;47.21;100926.38;5030606;27;96854;-82
2023/12/27 10:40:23;;;;;;;7.78;1.95;;;;;;;11.72;46.79;100947.38;5022914;27;97526;-82
2023/12/27 10:42:51;;;;;;;7.60;2.40;;;;;;;11.71;46.24;100929.84;5036292;27;97649;-82
2023/12/27 10:45:17;;;;;;;9.02;2.47;;;;;;;11.66;46.59;100942.25;5030143;27;97381;-82
2023/12/27 10:47:44;;;;;;;11.77;2.10;;;;;;;11.67;46.41;100935.25;5022033;27;97730;-82
2023/12/27 10:50:12;;;;;;;6.68;2.00;;;;;;;11.59;46.72;100934.59;5013265;28;98752;-83
2023/12/27 10:52:40;;;;;;;9.23;1.95;;;;;;;11.35;46.96;100930.91;5007300;27;100902;-83
2023/12/27 10:55:08;;;;;;;12.43;2.40;;;;;;;11.25;47.29;100931.13;5014262;27;97285;-82
2023/12/27 10:57:35;;;;;;;11.02;2.58;;;;;;;11.12;47.57;100927.13;5005460;27;97488;-82
2023/12/27 11:00:03;;;;;;;10.90;2.22;;;;;;;11.03;47.72;100930.00;5015601;27;101291;-82
2023/12/27 11:02:29;;;;;;;10.70;2.33;;;;;;;11.13;47.80;100928.84;5022412;27;101153;-82
2023/12/27 11:04:55;;;;;;;9.05;2.22;;;;;;;11.12;48.49;100936.78;5015559;27;96771;-82
2023/12/27 11:07:21;;;;;;;10.13;2.28;;;;;;;11.17;47.83;100943.66;5016406;27;97213;-82
2023/12/27 11:09:47;;;;;;;9.77;2.33;;;;;;;11.05;47.91;100931.69;5031482;27;97706;-82
2023/12/27 11:12:17;;;;;;;7.63;1.90;;;;;;;11.20;47.82;100946.19;5022633;28;97344;-81
2023/12/27 11:14:43;;;;;;;10.57;2.30;;;;;;;10.96;47.80;100931.91;5015399;28;96760;-83
2023/12/27 11:17:10;;;;;;;10.10;2.85;;;;;;;10.95;47.97;100910.94;5012019;27;97333;-82
2023/12/27 11:19:36;;;;;;;10.35;2.97;;;;;;;11.03;48.42;100936.13;5015809;27;97469;-82
2023/12/27 11:22:02;;;;;;;7.70;2.00;;;;;;;10.99;48.35;100929.19;5015807;27;101307;-81